Time;durP1;ratioP1;P1;durP2;ratioP2;P2;SDS_P1;SDS_P2;PMS_P1;PMS_P2;Temp;Humidity;BMP_temperature;BMP_pressure;BME280_temperature;BME280_humidity;BME280_pressure;Samples;Min_cycle;Max_cycle;Signal;HPM_P1;HPM_P2
2022/06/25 00:01:23;;;;;;;10.90;7.37;;;;;;;-145.18;100.00;46660.41;5032883;28;20037;-68
2022/06/25 00:03:49;;;;;;;8.60;6.97;;;;;;;-145.18;100.00;46660.41;5029232;28;20411;-68
2022/06/25 00:06:16;;;;;;;6.93;6.20;;;;;;;-145.18;100.00;46660.41;5024894;28;20037;-68
2022/06/25 00:08:44;;;;;;;10.13;6.77;;;;;;;-145.18;100.00;46660.41;5015454;28;20125;-68
2022/06/25 00:12:31;;;;;;;9.20;6.63;;;;;;;-145.18;100.00;46660.41;5012586;28;20076;-68
2022/06/25 00:13:55;;;;;;;7.32;6.63;;;;;;;-145.18;100.00;46660.41;5012948;28;20573;-68
2022/06/25 00:16:21;;;;;;;8.53;6.60;;;;;;;-145.18;100.00;46660.41;5012693;28;20044;-68
2022/06/25 00:18:47;;;;;;;10.63;6.17;;;;;;;-145.18;100.00;46660.41;5012980;28;20655;-68
2022/06/25 00:21:12;;;;;;;11.27;5.77;;;;;;;-145.18;100.00;46660.41;5012913;28;20038;-68
2022/06/25 00:23:37;;;;;;;7.50;6.03;;;;;;;-145.18;100.00;46660.41;5013515;28;20034;-68
2022/06/25 00:26:03;;;;;;;7.87;6.13;;;;;;;-145.18;100.00;46660.41;5013016;28;20033;-68
2022/06/25 00:28:28;;;;;;;6.43;5.47;;;;;;;-145.18;100.00;46660.41;5012259;28;20030;-68
2022/06/25 00:30:53;;;;;;;14.57;6.57;;;;;;;-145.18;100.00;46660.41;5012836;28;20065;-68
2022/06/25 00:33:19;;;;;;;6.40;5.80;;;;;;;-145.18;100.00;46660.41;5012854;28;20046;-68
2022/06/25 00:35:44;;;;;;;9.20;6.30;;;;;;;-145.18;100.00;46660.41;5011400;28;20079;-68
2022/06/25 00:38:10;;;;;;;6.83;5.40;;;;;;;-145.18;100.00;46660.41;5012336;28;20109;-68
2022/06/25 00:40:36;;;;;;;7.10;5.63;;;;;;;-145.18;100.00;46660.41;5012908;28;20037;-68
2022/06/25 00:43:01;;;;;;;12.50;6.03;;;;;;;-145.18;100.00;46660.41;5012595;28;20061;-68
2022/06/25 00:45:26;;;;;;;9.33;5.97;;;;;;;-145.18;100.00;46660.41;5012685;28;20133;-68
2022/06/25 00:47:52;;;;;;;9.70;6.00;;;;;;;-145.18;100.00;46660.41;5012294;28;20030;-68
2022/06/25 00:50:17;;;;;;;14.50;6.63;;;;;;;-145.18;100.00;46660.41;5012511;28;20042;-68
2022/06/25 00:52:47;;;;;;;9.17;5.87;;;;;;;-145.18;100.00;46660.41;5012528;28;20037;-68
2022/06/25 00:55:13;;;;;;;10.43;6.90;;;;;;;-145.18;100.00;46660.41;5011757;28;20030;-68
2022/06/25 00:57:40;;;;;;;11.70;7.10;;;;;;;-145.18;100.00;46660.41;5012723;28;20044;-68
2022/06/25 01:00:12;;;;;;;9.17;6.43;;;;;;;-145.18;100.00;46660.41;5012226;28;20044;-68
2022/06/25 01:02:39;;;;;;;10.13;6.23;;;;;;;-145.18;100.00;46660.41;5012139;28;20072;-68
2022/06/25 01:05:06;;;;;;;10.60;6.43;;;;;;;-145.18;100.00;46660.41;5012161;28;20506;-68
2022/06/25 01:07:32;;;;;;;11.70;6.20;;;;;;;-145.18;100.00;46660.41;5011618;28;20463;-68
2022/06/25 01:09:57;;;;;;;7.53;5.87;;;;;;;-145.18;100.00;46660.41;5010715;28;20041;-68
2022/06/25 01:12:23;;;;;;;10.57;5.80;;;;;;;-145.18;100.00;46660.41;5011332;28;20154;-68
2022/06/25 01:15:09;;;;;;;11.97;6.17;;;;;;;-145.18;100.00;46658.44;5012287;28;20070;-68
2022/06/25 01:17:38;;;;;;;7.18;6.38;;;;;;;-145.18;100.00;46660.41;5011693;28;20034;-68
2022/06/25 01:20:04;;;;;;;10.87;5.70;;;;;;;-145.18;100.00;46660.41;5011794;28;20066;-68
2022/06/25 01:22:32;;;;;;;9.60;5.67;;;;;;;-145.18;100.00;46660.41;5011793;28;20045;-68
2022/06/25 01:24:58;;;;;;;9.83;5.80;;;;;;;-145.18;100.00;46660.41;5011989;28;20065;-68
2022/06/25 01:27:23;;;;;;;7.23;5.57;;;;;;;-145.18;100.00;46660.41;5010134;28;20053;-68
2022/06/25 01:29:48;;;;;;;10.63;6.00;;;;;;;-145.18;100.00;46656.50;5010497;28;20026;-68
2022/06/25 01:32:14;;;;;;;10.07;5.87;;;;;;;-145.18;100.00;46658.44;5010590;28;20534;-68
2022/06/25 01:34:39;;;;;;;8.97;5.50;;;;;;;-145.18;100.00;46660.41;5010424;28;20042;-68
2022/06/25 01:37:05;;;;;;;11.87;5.43;;;;;;;-145.18;100.00;46658.44;5010774;28;20608;-68
2022/06/25 01:39:30;;;;;;;8.37;6.13;;;;;;;-145.18;100.00;46660.41;5010678;28;20482;-68
2022/06/25 01:41:55;;;;;;;7.07;5.97;;;;;;;-145.18;100.00;46660.41;5011376;28;20108;-68
2022/06/25 01:44:21;;;;;;;6.10;5.43;;;;;;;-145.18;100.00;46660.41;5011486;28;20045;-68
2022/06/25 01:46:46;;;;;;;10.03;5.67;;;;;;;-145.18;100.00;46658.44;5011830;28;20160;-68
2022/06/25 01:49:11;;;;;;;11.27;5.80;;;;;;;-145.18;100.00;46660.41;5011197;28;20022;-68
2022/06/25 01:51:37;;;;;;;8.83;5.40;;;;;;;-145.18;100.00;46654.53;5011613;28;20367;-68
2022/06/25 01:54:02;;;;;;;9.27;5.17;;;;;;;-145.18;100.00;46654.53;5011019;28;20052;-68
2022/06/25 01:56:28;;;;;;;8.53;5.43;;;;;;;-145.18;100.00;46660.41;5010809;28;20033;-68
2022/06/25 01:58:53;;;;;;;8.17;5.57;;;;;;;-145.18;100.00;46660.41;5011669;28;20040;-68
2022/06/25 02:03:54;;;;;;;9.10;5.60;;;;;;;-145.18;100.00;46656.50;4863256;22;20446;-68
2022/06/25 02:06:19;;;;;;;14.60;5.90;;;;;;;-145.18;100.00;46660.41;4980356;28;20038;-67
2022/06/25 02:08:44;;;;;;;12.80;5.60;;;;;;;-145.18;100.00;46658.44;4971966;28;20069;-67
2022/06/25 02:11:10;;;;;;;8.13;5.47;;;;;;;-145.18;100.00;46654.53;4972998;28;20027;-67
2022/06/25 02:13:35;;;;;;;7.17;5.37;;;;;;;-145.18;100.00;46658.44;4988861;28;20041;-67
2022/06/25 02:16:02;;;;;;;7.03;5.17;;;;;;;-145.18;100.00;46658.44;4991642;28;20054;-67
2022/06/25 02:18:28;;;;;;;7.43;6.03;;;;;;;-145.18;100.00;46656.50;4981826;28;20395;-68
2022/06/25 02:20:54;;;;;;;9.90;5.50;;;;;;;-145.18;100.00;46660.41;4963807;28;20042;-67
2022/06/25 02:23:21;;;;;;;10.00;5.80;;;;;;;-145.18;100.00;46658.44;4971661;28;20049;-67
2022/06/25 02:25:47;;;;;;;9.73;5.17;;;;;;;-145.18;100.00;46656.50;4972311;28;20035;-67
2022/06/25 02:28:15;;;;;;;10.90;5.50;;;;;;;-145.18;100.00;46660.41;4971657;28;20023;-67
2022/06/25 02:30:40;;;;;;;12.30;5.30;;;;;;;-145.18;100.00;46656.50;4972285;28;20054;-67
2022/06/25 02:33:09;;;;;;;9.13;5.20;;;;;;;-145.18;100.00;46658.44;4971639;28;20066;-67
2022/06/25 02:35:34;;;;;;;8.73;5.40;;;;;;;-145.18;100.00;46656.50;4971972;28;20053;-68
2022/06/25 02:37:59;;;;;;;10.27;5.47;;;;;;;-145.18;100.00;46658.44;4971626;28;20118;-67
2022/06/25 02:40:25;;;;;;;8.77;4.90;;;;;;;-145.18;100.00;46656.50;4972136;28;20041;-68
2022/06/25 02:42:50;;;;;;;10.43;5.50;;;;;;;-145.18;100.00;46658.44;4971572;28;20074;-67
2022/06/25 02:45:15;;;;;;;9.17;5.20;;;;;;;-145.18;100.00;46658.44;4971625;28;20039;-68
2022/06/25 02:47:41;;;;;;;8.80;4.77;;;;;;;-145.18;100.00;46658.44;4971749;28;20027;-68
2022/06/25 02:50:07;;;;;;;8.93;5.30;;;;;;;-145.18;100.00;46658.44;4971719;28;20047;-67
2022/06/25 02:52:33;;;;;;;6.73;4.87;;;;;;;-145.18;100.00;46660.41;4971435;28;20076;-67
2022/06/25 02:54:58;;;;;;;9.77;5.17;;;;;;;-145.18;100.00;46660.41;4971866;28;20062;-67
2022/06/25 03:00:08;;;;;;;11.53;5.67;;;;;;;-145.18;100.00;46656.50;4972042;28;20038;-67
2022/06/25 03:02:34;;;;;;;7.67;5.70;;;;;;;-145.18;100.00;46658.44;4971140;28;20054;-67
2022/06/25 03:05:00;;;;;;;12.73;5.53;;;;;;;-145.18;100.00;46652.59;4971646;28;20027;-67
2022/06/25 03:07:25;;;;;;;10.10;5.47;;;;;;;-145.18;100.00;46660.41;4971515;28;20114;-67
2022/06/25 03:09:51;;;;;;;10.47;6.73;;;;;;;-145.18;100.00;46656.50;4971711;28;20045;-67
2022/06/25 03:12:16;;;;;;;13.70;5.63;;;;;;;-145.18;100.00;46656.50;4971192;28;20483;-68
2022/06/25 03:14:42;;;;;;;7.57;5.43;;;;;;;-145.18;100.00;46660.41;4971921;28;20074;-67
2022/06/25 03:17:08;;;;;;;8.43;5.30;;;;;;;-145.18;100.00;46656.50;4971160;28;20451;-67
2022/06/25 03:19:33;;;;;;;9.03;5.30;;;;;;;-145.18;100.00;46652.59;4971955;28;20384;-68
2022/06/25 03:21:58;;;;;;;7.03;4.63;;;;;;;-145.18;100.00;46656.50;4971345;28;20920;-68
2022/06/25 03:24:24;;;;;;;11.47;5.23;;;;;;;-145.18;100.00;46654.53;4971633;28;20038;-68
2022/06/25 03:26:49;;;;;;;5.93;5.33;;;;;;;-145.18;100.00;46656.50;4975472;28;20035;-67
2022/06/25 03:29:15;;;;;;;10.07;5.20;;;;;;;-145.18;100.00;46658.44;4974751;28;20081;-67
2022/06/25 03:31:40;;;;;;;8.87;4.63;;;;;;;-145.18;100.00;46658.44;4975443;28;20062;-67
2022/06/25 03:34:07;;;;;;;10.83;5.70;;;;;;;-145.18;100.00;46660.41;4974629;28;20121;-67
2022/06/25 03:36:33;;;;;;;10.33;4.80;;;;;;;-145.18;100.00;46660.41;4975261;28;20038;-67
2022/06/25 03:38:59;;;;;;;8.37;4.50;;;;;;;-145.18;100.00;46652.59;4974515;28;20045;-68
2022/06/25 03:41:37;;;;;;;8.63;4.27;;;;;;;-145.18;100.00;46660.41;4975325;28;20113;-67
2022/06/25 03:44:05;;;;;;;7.37;4.57;;;;;;;-145.18;100.00;46660.41;4974512;28;20043;-67
2022/06/25 03:46:31;;;;;;;8.37;4.90;;;;;;;-145.18;100.00;46660.41;4957902;28;20027;-67
2022/06/25 03:48:56;;;;;;;10.00;4.93;;;;;;;-145.18;100.00;46660.41;4974652;28;20228;-67
2022/06/25 03:51:22;;;;;;;7.30;4.50;;;;;;;-145.18;100.00;46660.41;4975043;28;20027;-68
2022/06/25 03:53:47;;;;;;;6.83;4.67;;;;;;;-145.18;100.00;46660.41;4974551;28;20027;-67
2022/06/25 03:56:12;;;;;;;6.60;4.47;;;;;;;-145.18;100.00;46660.41;4974659;28;20382;-68
2022/06/25 03:58:38;;;;;;;9.67;4.27;;;;;;;-145.18;100.00;46660.41;4974348;28;20039;-67
2022/06/25 04:01:03;;;;;;;8.77;4.40;;;;;;;-145.18;100.00;46660.41;4975000;28;20035;-67
2022/06/25 04:03:29;;;;;;;7.63;4.37;;;;;;;-145.18;100.00;46660.41;4974228;28;20074;-67
2022/06/25 04:05:55;;;;;;;11.97;5.00;;;;;;;-145.18;100.00;46660.41;4974688;28;20042;-67
2022/06/25 04:08:20;;;;;;;5.90;4.37;;;;;;;-145.18;100.00;46625.22;4974203;28;20035;-68
2022/06/25 04:10:46;;;;;;;7.63;3.80;;;;;;;-145.18;100.00;46660.41;4957458;28;20053;-68
2022/06/25 04:13:11;;;;;;;9.10;3.80;;;;;;;-145.18;100.00;46660.41;4974181;28;20039;-67
2022/06/25 04:15:37;;;;;;;7.13;3.67;;;;;;;-145.18;100.00;46625.22;4974576;28;20106;-67
2022/06/25 04:18:04;;;;;;;6.40;4.20;;;;;;;-145.18;100.00;46623.28;4962480;28;20083;-67
2022/06/25 04:20:29;;;;;;;5.33;3.23;;;;;;;-145.18;100.00;46629.13;4947118;29;20179;-67
2022/06/25 04:22:55;;;;;;;8.77;3.50;;;;;;;-145.18;100.00;46660.41;4954406;29;20372;-67
2022/06/25 04:25:20;;;;;;;6.60;3.80;;;;;;;-145.18;100.00;46627.19;4942201;28;20039;-68
2022/06/25 04:30:30;;;;;;;5.30;3.90;;;;;;;-145.18;100.00;46629.13;4958026;28;20050;-68
2022/06/25 04:32:55;;;;;;;7.70;4.37;;;;;;;-145.18;100.00;46627.19;4960805;28;20035;-68
2022/06/25 04:35:21;;;;;;;7.93;4.20;;;;;;;-145.18;100.00;46627.19;4959937;28;20504;-68
2022/06/25 04:37:46;;;;;;;11.73;4.40;;;;;;;-145.18;100.00;46627.19;4964347;28;20736;-67
2022/06/25 04:40:12;;;;;;;6.63;4.57;;;;;;;-145.18;100.00;46623.28;4952274;28;20034;-68
2022/06/25 04:42:37;;;;;;;9.20;4.50;;;;;;;-145.18;100.00;46629.13;4953595;29;20043;-68
2022/06/25 04:45:03;;;;;;;6.47;4.27;;;;;;;-145.18;100.00;46625.22;4950612;28;20023;-68
2022/06/25 04:47:28;;;;;;;7.63;4.53;;;;;;;-145.18;100.00;46631.09;4960561;28;20063;-68
2022/06/25 04:49:53;;;;;;;7.63;4.40;;;;;;;-145.18;100.00;46625.22;4957675;28;20134;-67
2022/06/25 04:52:19;;;;;;;9.17;4.57;;;;;;;-145.18;100.00;46625.22;4960011;28;20194;-67
2022/06/25 04:54:44;;;;;;;6.63;4.40;;;;;;;-145.18;100.00;46629.13;4954563;29;20063;-67
2022/06/25 04:57:09;;;;;;;9.30;4.50;;;;;;;-145.18;100.00;46631.09;4937127;29;20035;-67
2022/06/25 04:59:35;;;;;;;11.03;5.13;;;;;;;-145.18;100.00;46633.06;4954030;29;20030;-67
2022/06/25 05:02:00;;;;;;;8.37;4.37;;;;;;;-145.18;100.00;46631.09;4954102;29;20035;-67
2022/06/25 05:04:26;;;;;;;5.70;4.60;;;;;;;-145.18;100.00;46631.09;4953946;29;20126;-67
2022/06/25 05:06:51;;;;;;;8.67;4.27;;;;;;;-145.18;100.00;46633.06;4954392;29;20114;-67
2022/06/25 05:09:16;;;;;;;7.87;4.33;;;;;;;-145.18;100.00;46633.06;4970691;28;20510;-67
2022/06/25 05:11:43;;;;;;;5.90;4.03;;;;;;;-145.18;100.00;46631.09;4965894;28;20122;-68
2022/06/25 05:14:08;;;;;;;8.13;4.30;;;;;;;-145.18;100.00;46636.94;4949441;28;20123;-68
2022/06/25 05:16:34;;;;;;;7.60;3.83;;;;;;;-145.18;100.00;46633.06;4952782;29;20403;-68
2022/06/25 05:18:59;;;;;;;5.60;3.83;;;;;;;-145.18;100.00;46635.00;4952562;29;20031;-67
2022/06/25 05:21:24;;;;;;;5.83;3.90;;;;;;;-145.18;100.00;46635.00;4946194;28;20090;-67
2022/06/25 05:23:50;;;;;;;8.07;4.27;;;;;;;-145.18;100.00;46633.06;4949818;29;20054;-68
2022/06/25 05:26:15;;;;;;;12.37;4.53;;;;;;;-145.18;100.00;46635.00;4951211;28;20118;-68
2022/06/25 05:28:40;;;;;;;7.97;4.40;;;;;;;-145.18;100.00;46633.06;4960503;28;20146;-68
2022/06/25 05:31:07;;;;;;;11.67;4.23;;;;;;;-145.18;100.00;46633.06;4972613;28;20527;-68
2022/06/25 05:33:32;;;;;;;6.30;4.03;;;;;;;-145.18;100.00;46631.09;4972664;28;20510;-68
2022/06/25 05:35:58;;;;;;;8.47;4.23;;;;;;;-145.18;100.00;46635.00;4973024;28;20027;-67
2022/06/25 05:38:23;;;;;;;5.37;4.00;;;;;;;-145.18;100.00;46636.94;4965547;28;20143;-68
2022/06/25 05:40:48;;;;;;;8.40;4.30;;;;;;;-145.18;100.00;46635.00;4953310;29;20419;-67
2022/06/25 05:43:14;;;;;;;10.27;4.60;;;;;;;-145.18;100.00;46635.00;4952664;29;20476;-68
2022/06/25 05:45:39;;;;;;;7.43;4.27;;;;;;;-145.18;100.00;46636.94;4953562;29;20031;-67
2022/06/25 05:48:05;;;;;;;7.40;4.07;;;;;;;-145.18;100.00;46631.09;4952444;28;20035;-68
2022/06/25 05:50:31;;;;;;;6.30;4.30;;;;;;;-145.18;100.00;46636.94;4953647;29;20392;-68
2022/06/25 05:52:56;;;;;;;9.00;4.47;;;;;;;-145.18;100.00;46635.00;4953176;29;20619;-68
2022/06/25 05:55:23;;;;;;;9.13;3.90;;;;;;;-145.18;100.00;46631.09;4953604;29;20031;-68
2022/06/25 05:57:49;;;;;;;7.73;4.33;;;;;;;-145.18;100.00;46635.00;4953015;29;20452;-68
2022/06/25 06:00:15;;;;;;;6.53;4.20;;;;;;;-145.18;100.00;46633.06;4953443;29;20564;-68
2022/06/25 08:35:19;;;;;;;8.13;4.87;;;;;;;-145.18;100.00;46670.16;5035054;23;20093;-68
2022/06/25 08:37:47;;;;;;;7.23;5.00;;;;;;;-145.18;100.00;46672.13;4994136;28;20047;-68
2022/06/25 08:40:13;;;;;;;7.37;4.97;;;;;;;-145.18;100.00;46672.13;4983737;28;20042;-68
2022/06/25 08:42:39;;;;;;;7.97;4.70;;;;;;;-145.18;100.00;46668.22;4992169;28;20454;-68
2022/06/25 08:45:06;;;;;;;8.17;4.93;;;;;;;-145.18;100.00;46674.06;4992318;28;20026;-68
2022/06/25 08:47:31;;;;;;;7.33;4.67;;;;;;;-145.18;100.00;46674.06;4992186;28;20049;-68
2022/06/25 08:49:58;;;;;;;8.80;4.60;;;;;;;-145.18;100.00;46672.13;4990631;28;20419;-68
2022/06/25 08:52:27;;;;;;;7.70;5.07;;;;;;;-145.18;100.00;46668.22;4993116;28;20040;-68
2022/06/25 08:54:54;;;;;;;10.70;4.60;;;;;;;-145.18;100.00;46666.25;4991849;28;20042;-68
2022/06/25 08:57:19;;;;;;;6.57;4.40;;;;;;;-145.18;100.00;46666.25;4992719;28;20030;-69
2022/06/25 08:59:45;;;;;;;7.87;4.70;;;;;;;-145.18;100.00;46672.13;4991977;28;20453;-68
2022/06/25 09:02:10;;;;;;;7.97;4.10;;;;;;;-145.18;100.00;46664.31;4992801;28;20045;-68
2022/06/25 09:04:36;;;;;;;6.73;3.70;;;;;;;-145.18;100.00;46668.22;4990632;28;20242;-68
2022/06/25 09:07:14;;;;;;;9.40;3.80;;;;;;;-145.18;100.00;46672.13;4992243;28;20478;-68
2022/06/25 09:09:50;;;;;;;6.60;4.00;;;;;;;-145.18;100.00;46670.16;4991969;28;20034;-68
2022/06/25 09:12:17;;;;;;;7.78;4.03;;;;;;;-145.18;100.00;46674.06;4991811;28;20169;-68
2022/06/25 09:14:43;;;;;;;7.70;3.73;;;;;;;-145.18;100.00;46670.16;4990116;28;20050;-68
2022/06/25 09:17:12;;;;;;;7.53;4.00;;;;;;;-145.18;100.00;46672.13;4992309;28;20423;-68
2022/06/25 09:19:42;;;;;;;5.67;3.40;;;;;;;-145.18;100.00;46676.03;4992097;28;20030;-68
2022/06/25 09:22:19;;;;;;;9.03;3.37;;;;;;;-145.18;100.00;46674.06;4991278;28;20074;-68
2022/06/25 09:24:58;;;;;;;7.63;3.67;;;;;;;-145.18;100.00;46674.06;4991663;28;20471;-68
2022/06/25 09:27:33;;;;;;;9.53;4.23;;;;;;;-145.18;100.00;46674.06;4991993;28;20039;-68
2022/06/25 09:30:05;;;;;;;4.43;3.30;;;;;;;-145.18;100.00;46658.44;4985323;28;20031;-68
2022/06/25 09:32:51;;;;;;;5.33;3.23;;;;;;;-145.18;100.00;46646.72;4955511;28;20050;-68
2022/06/25 09:35:34;;;;;;;5.38;2.85;;;;;;;-145.18;100.00;46656.50;4971844;28;20055;-68
2022/06/25 09:38:04;;;;;;;6.47;3.00;;;;;;;-145.18;100.00;46621.31;4972506;28;20130;-68
2022/06/25 09:40:30;;;;;;;6.00;2.57;;;;;;;-145.18;100.00;46635.00;4972383;28;20033;-68
2022/06/25 09:42:57;;;;;;;6.63;2.77;;;;;;;-145.18;100.00;46588.13;4971523;28;20035;-68
2022/06/25 09:45:23;;;;;;;5.40;3.00;;;;;;;-145.18;100.00;46625.22;4972412;28;20161;-69
2022/06/25 09:47:48;;;;;;;4.07;2.10;;;;;;;-145.18;100.00;46672.13;4980880;28;20471;-68
2022/06/25 09:50:16;;;;;;;3.10;2.70;;;;;;;-145.18;100.00;46681.88;4991529;28;20492;-69
2022/06/25 09:52:56;;;;;;;3.60;2.50;;;;;;;-145.18;100.00;46679.94;4991285;28;20040;-68
2022/06/25 09:55:25;;;;;;;6.63;2.77;;;;;;;-145.18;100.00;46676.03;4991501;28;20030;-68
2022/06/25 09:57:51;;;;;;;5.33;3.20;;;;;;;-145.18;100.00;46672.13;4991658;28;20035;-69
2022/06/25 10:00:18;;;;;;;4.13;3.00;;;;;;;-145.18;100.00;46670.16;4991051;28;20693;-68
2022/06/25 10:02:46;;;;;;;6.30;2.93;;;;;;;-145.18;100.00;46672.13;4991033;28;20070;-68
2022/06/25 10:05:13;;;;;;;7.47;2.90;;;;;;;-145.18;100.00;46677.97;4991385;28;20074;-68
2022/06/25 10:08:15;;;;;;;5.03;3.10;;;;;;;-145.18;100.00;46676.03;4991047;28;20126;-68
2022/06/25 10:10:39;;;;;;;5.13;3.50;;;;;;;-145.18;100.00;46674.06;4987904;28;20057;-68
2022/06/25 10:13:04;;;;;;;6.60;2.80;;;;;;;-145.18;100.00;46679.94;4991486;28;20034;-68
2022/06/25 10:15:30;;;;;;;5.80;3.13;;;;;;;-145.18;100.00;46679.94;4991027;28;20485;-68
2022/06/25 10:17:56;;;;;;;6.63;4.50;;;;;;;-145.18;100.00;46670.16;4991009;28;20073;-68
2022/06/25 10:20:23;;;;;;;10.33;5.90;;;;;;;-145.18;100.00;46670.16;4990911;28;20121;-68
2022/06/25 10:22:50;;;;;;;9.87;7.70;;;;;;;-145.18;100.00;46656.50;4991225;28;20034;-68
2022/06/25 10:25:20;;;;;;;17.27;8.57;;;;;;;-145.18;100.00;46646.72;4990889;28;20044;-68
2022/06/25 10:27:47;;;;;;;21.27;12.83;;;;;;;-145.18;100.00;46640.88;4991273;28;20026;-69
2022/06/25 10:30:33;;;;;;;19.80;13.43;;;;;;;-145.18;100.00;46638.91;4989709;28;20375;-68
2022/06/25 10:32:59;;;;;;;21.52;14.52;;;;;;;-145.18;100.00;46636.94;4982951;28;20089;-69
2022/06/25 10:35:35;;;;;;;15.13;12.37;;;;;;;-145.18;100.00;46636.94;4989993;28;20055;-70
2022/06/25 10:38:28;;;;;;;15.67;11.63;;;;;;;-145.18;100.00;46635.00;4983196;28;20070;-69
2022/06/25 10:40:57;;;;;;;12.37;10.70;;;;;;;-145.18;100.00;46635.00;4980032;28;20156;-69
2022/06/25 10:43:42;;;;;;;12.07;10.67;;;;;;;-145.18;100.00;46635.00;4988761;28;20026;-69
2022/06/25 10:46:27;;;;;;;14.70;10.03;;;;;;;-145.18;100.00;46640.88;4987141;28;20059;-70
2022/06/25 10:48:55;;;;;;;12.53;9.93;;;;;;;-145.18;100.00;46640.88;4987173;28;20033;-70
2022/06/25 10:51:43;;;;;;;10.13;8.93;;;;;;;-145.18;100.00;46642.81;4989270;28;20121;-69
2022/06/25 10:54:23;;;;;;;9.00;8.10;;;;;;;-145.18;100.00;46640.88;4986233;28;20038;-69
2022/06/25 10:56:58;;;;;;;9.83;8.33;;;;;;;-145.18;100.00;46646.72;4989631;28;20080;-69
2022/06/25 10:59:32;;;;;;;11.93;7.22;;;;;;;-145.18;100.00;46652.59;4992887;28;20033;-69
2022/06/25 11:01:59;;;;;;;9.03;7.93;;;;;;;-145.18;100.00;46652.59;4995351;28;20474;-69
2022/06/25 11:04:29;;;;;;;7.43;6.67;;;;;;;-145.18;100.00;46658.44;4990091;28;20097;-69
2022/06/25 11:07:26;;;;;;;6.27;5.77;;;;;;;-145.18;100.00;46666.25;4989469;28;20558;-69
2022/06/25 11:09:53;;;;;;;7.63;6.40;;;;;;;-145.18;100.00;46670.16;4946650;28;20054;-69
2022/06/25 11:12:19;;;;;;;7.97;6.60;;;;;;;-145.18;100.00;46662.34;4989514;28;20408;-69
2022/06/25 11:14:49;;;;;;;11.93;6.43;;;;;;;-145.18;100.00;46662.34;4989882;28;20606;-69
2022/06/25 11:17:15;;;;;;;7.87;6.40;;;;;;;-145.18;100.00;46664.31;4989545;28;20030;-69
2022/06/25 11:19:42;;;;;;;6.70;5.73;;;;;;;-145.18;100.00;46668.22;4989724;28;20045;-70
2022/06/25 11:22:07;;;;;;;9.57;6.43;;;;;;;-145.18;100.00;46666.25;4990188;28;20405;-69
2022/06/25 11:24:33;;;;;;;7.30;5.87;;;;;;;-145.18;100.00;46670.16;4989667;28;20129;-67
2022/06/25 11:29:51;;;;;;;7.88;4.80;;;;;;;-145.18;100.00;46683.84;4990316;28;20061;-67
2022/06/25 11:32:28;;;;;;;9.10;5.63;;;;;;;-145.18;100.00;46676.03;4985962;28;20046;-67
2022/06/25 11:34:59;;;;;;;6.83;5.00;;;;;;;-145.18;100.00;46676.03;4989779;28;20073;-67
2022/06/25 11:37:26;;;;;;;6.80;5.30;;;;;;;-145.18;100.00;46672.13;4990010;28;20072;-67
2022/06/25 11:39:52;;;;;;;9.23;5.47;;;;;;;-145.18;100.00;46676.03;4989593;28;20031;-68
2022/06/25 11:42:19;;;;;;;8.03;5.20;;;;;;;-145.18;100.00;46676.03;4990588;28;20458;-67
2022/06/25 11:44:45;;;;;;;6.40;5.73;;;;;;;-145.18;100.00;46676.03;4972711;28;20379;-67
2022/06/25 11:47:18;;;;;;;6.90;6.20;;;;;;;-145.18;100.00;46674.06;4992398;28;20033;-68
2022/06/25 11:49:43;;;;;;;8.63;5.40;;;;;;;-145.18;100.00;46676.03;4991569;28;20458;-67
2022/06/25 11:52:11;;;;;;;7.77;5.67;;;;;;;-145.18;100.00;46679.94;4992567;28;20029;-67
2022/06/25 11:54:37;;;;;;;8.37;5.97;;;;;;;-145.18;100.00;46676.03;4991954;28;20557;-67
2022/06/25 11:57:05;;;;;;;6.17;5.47;;;;;;;-145.18;100.00;46656.50;4992637;28;20497;-67
2022/06/25 11:59:33;;;;;;;6.37;4.90;;;;;;;-145.18;100.00;46644.78;4994072;28;20110;-67
2022/06/25 12:01:59;;;;;;;9.03;4.60;;;;;;;-145.18;100.00;46549.06;4993609;28;20034;-67
2022/06/25 12:04:26;;;;;;;5.57;4.67;;;;;;;-145.18;100.00;46547.09;4993998;28;20034;-68
2022/06/25 12:06:54;;;;;;;5.87;4.43;;;;;;;-145.18;100.00;46547.09;4993705;28;20049;-67
2022/06/25 12:09:21;;;;;;;7.73;4.97;;;;;;;-145.18;100.00;46551.00;4993876;28;20058;-68
2022/06/25 12:11:55;;;;;;;7.88;3.92;;;;;;;-145.18;100.00;46541.25;4993392;28;20507;-67
2022/06/25 12:14:22;;;;;;;5.03;4.20;;;;;;;-145.18;100.00;46551.00;4993982;28;20117;-67
2022/06/25 12:16:48;;;;;;;6.22;4.55;;;;;;;-145.18;100.00;46545.16;4993279;28;20026;-67
2022/06/25 12:19:14;;;;;;;5.32;4.28;;;;;;;-145.18;100.00;46525.63;4993755;28;20032;-68
2022/06/25 12:21:39;;;;;;;7.35;3.80;;;;;;;-145.18;100.00;46515.84;4993257;28;20034;-67
2022/06/25 12:24:06;;;;;;;7.72;4.47;;;;;;;-145.18;100.00;46539.28;4959597;28;20034;-68
2022/06/25 12:26:35;;;;;;;8.30;4.78;;;;;;;-145.18;100.00;46543.19;4993196;28;20030;-68
2022/06/25 12:29:27;;;;;;;10.68;4.43;;;;;;;-145.18;100.00;46549.06;4993238;28;20110;-68
2022/06/25 12:32:01;;;;;;;9.85;5.60;;;;;;;-145.18;100.00;46535.38;4988031;28;20047;-68
2022/06/25 12:34:27;;;;;;;5.07;4.22;;;;;;;-145.18;100.00;46537.34;4993145;28;20026;-68
2022/06/25 12:36:54;;;;;;;7.22;4.57;;;;;;;-145.18;100.00;46560.78;4992964;28;20259;-68
2022/06/25 12:39:35;;;;;;;5.22;3.97;;;;;;;-145.18;100.00;46523.66;4993054;28;20056;-68
2022/06/25 12:42:03;;;;;;;6.68;4.18;;;;;;;-145.18;100.00;46521.72;4992557;28;20450;-68
2022/06/25 12:44:38;;;;;;;6.60;4.25;;;;;;;-145.18;100.00;46508.03;4993160;28;20455;-68
2022/06/25 12:47:07;;;;;;;8.23;4.53;;;;;;;-145.18;100.00;46502.19;4992711;28;20033;-68
2022/06/25 12:49:57;;;;;;;5.70;4.22;;;;;;;-145.18;100.00;46529.53;4993022;28;20038;-67
2022/06/25 12:52:44;;;;;;;5.00;4.00;;;;;;;-145.18;100.00;46545.16;4992840;28;20117;-68
2022/06/25 12:55:18;;;;;;;7.10;4.65;;;;;;;-145.18;100.00;46537.34;4975085;28;20034;-68
2022/06/25 12:57:43;;;;;;;6.43;4.25;;;;;;;-145.18;100.00;46541.25;4992451;28;20513;-68
2022/06/25 13:00:23;;;;;;;5.40;4.72;;;;;;;-145.18;100.00;46547.09;4992806;28;20125;-68
2022/06/25 13:02:49;;;;;;;6.93;4.18;;;;;;;-145.18;100.00;46537.34;4992419;28;20487;-67
2022/06/25 13:05:19;;;;;;;8.05;4.00;;;;;;;-145.18;100.00;46543.19;4992769;28;20038;-68
2022/06/25 13:07:45;;;;;;;6.82;3.80;;;;;;;-145.18;100.00;46549.06;4992808;28;20390;-69
2022/06/25 13:10:11;;;;;;;5.72;4.03;;;;;;;-145.18;100.00;46535.38;4992530;28;20046;-68
2022/06/25 13:12:37;;;;;;;4.38;3.50;;;;;;;-145.18;100.00;46551.00;4991917;28;20767;-68
2022/06/25 13:15:04;;;;;;;5.05;4.10;;;;;;;-145.18;100.00;46570.53;4992295;28;20058;-68
2022/06/25 13:17:30;;;;;;;4.80;3.33;;;;;;;-145.18;100.00;46543.19;4992416;28;20112;-68
2022/06/25 13:19:55;;;;;;;7.82;4.30;;;;;;;-145.18;100.00;46558.81;4992219;28;20736;-68
2022/06/25 13:22:21;;;;;;;3.95;3.53;;;;;;;-145.18;100.00;46552.97;4991907;28;20026;-68
2022/06/25 13:24:46;;;;;;;5.10;4.03;;;;;;;-145.18;100.00;46547.09;4974317;28;20040;-68
2022/06/25 13:27:12;;;;;;;6.43;4.22;;;;;;;-145.18;100.00;46558.81;4992028;28;20038;-68
2022/06/25 13:29:37;;;;;;;5.18;4.00;;;;;;;-145.18;100.00;46547.09;4991940;28;20049;-68
2022/06/25 13:32:04;;;;;;;5.18;3.90;;;;;;;-145.18;100.00;46551.00;4991812;28;20034;-68
2022/06/25 13:34:29;;;;;;;5.72;4.10;;;;;;;-145.18;100.00;46556.88;4991608;28;20053;-68
2022/06/25 13:36:55;;;;;;;8.30;3.97;;;;;;;-145.18;100.00;46554.91;4991621;28;20038;-68
2022/06/25 13:39:21;;;;;;;5.95;3.90;;;;;;;-145.18;100.00;46551.00;4991960;28;20026;-68
2022/06/25 13:41:47;;;;;;;5.03;4.05;;;;;;;-145.18;100.00;46545.16;4991737;28;20124;-68
2022/06/25 13:44:12;;;;;;;5.45;4.18;;;;;;;-145.18;100.00;46549.06;4991786;28;20057;-68
2022/06/25 13:46:39;;;;;;;6.70;4.30;;;;;;;-145.18;100.00;46551.00;4991250;28;20030;-68
2022/06/25 13:49:05;;;;;;;10.63;4.40;;;;;;;-145.18;100.00;46543.19;4991993;28;20030;-68
2022/06/25 13:51:31;;;;;;;5.72;3.75;;;;;;;-145.18;100.00;46552.97;4991643;28;20052;-68
2022/06/25 13:53:57;;;;;;;5.40;4.13;;;;;;;-145.18;100.00;46552.97;4991378;28;20479;-68